sim
Sign-in with your pilot id or email,
or register
Callsign
Passwort

Schedule Details

Flight Number: RYR1519 (4)
Departure: Hamburg Airport (EDDH) at 18:05
Arrival: London Stansted Airport (EGSS) at 19:40
Route: Ryanair Passenger Schedule. Enter filed route here before submitting Pirep.

Weather Information
Getting current METAR information for EDDH 161720Z VRB02KT 9999 SCT041 M01/M04 Q1020 NOSIG
Getting current METAR information for EGSS 161720Z AUTO 27004KT 9999 BKN027 OVC039 06/06 Q1015

Schedule Frequency

Route Map